sensor_id;sensor_type;location;lat;lon;timestamp;temperature;humidity
25170;DHT22;13129;48.012;10.352;2024-01-30T04:49:24;-1.80;99.90
25170;DHT22;13129;48.012;10.352;2024-01-30T04:51:49;-1.70;99.90
25170;DHT22;13129;48.012;10.352;2024-01-30T04:54:15;-1.70;99.90
25170;DHT22;13129;48.012;10.352;2024-01-30T04:56:40;-1.70;99.90
25170;DHT22;13129;48.012;10.352;2024-01-30T04:59:06;-1.80;99.90
25170;DHT22;13129;48.012;10.352;2024-01-30T05:01:33;-1.80;99.90
25170;DHT22;13129;48.012;10.352;2024-01-30T05:03:59;-1.80;99.90
25170;DHT22;13129;48.012;10.352;2024-01-30T05:06:28;-1.70;99.90
25170;DHT22;13129;48.012;10.352;2024-01-30T05:08:54;-1.70;99.90
25170;DHT22;13129;48.012;10.352;2024-01-30T05:11:19;-1.80;99.90
25170;DHT22;13129;48.012;10.352;2024-01-30T05:13:45;-1.80;99.90
25170;DHT22;13129;48.012;10.352;2024-01-30T05:16:10;-1.80;99.90
25170;DHT22;13129;48.012;10.352;2024-01-30T05:18:36;-1.90;99.90
25170;DHT22;13129;48.012;10.352;2024-01-30T05:21:05;-1.90;99.90
25170;DHT22;13129;48.012;10.352;2024-01-30T05:23:31;-2.00;99.90
25170;DHT22;13129;48.012;10.352;2024-01-30T05:25:56;-2.00;99.90
25170;DHT22;13129;48.012;10.352;2024-01-30T05:28:22;-2.00;99.90
25170;DHT22;13129;48.012;10.352;2024-01-30T05:30:48;-1.90;99.90
25170;DHT22;13129;48.012;10.352;2024-01-30T05:33:13;-1.80;99.90
25170;DHT22;13129;48.012;10.352;2024-01-30T05:35:39;-1.70;99.90
25170;DHT22;13129;48.012;10.352;2024-01-30T05:38:04;-1.70;99.90
25170;DHT22;13129;48.012;10.352;2024-01-30T05:40:30;-1.80;99.90
25170;DHT22;13129;48.012;10.352;2024-01-30T05:42:56;-1.90;99.90
25170;DHT22;13129;48.012;10.352;2024-01-30T05:45:23;-1.90;99.90
25170;DHT22;13129;48.012;10.352;2024-01-30T05:47:49;-2.00;99.90
25170;DHT22;13129;48.012;10.352;2024-01-30T05:50:14;-2.10;99.90
25170;DHT22;13129;48.012;10.352;2024-01-30T05:52:40;-2.20;99.90
25170;DHT22;13129;48.012;10.352;2024-01-30T05:55:06;-2.20;99.90
25170;DHT22;13129;48.012;10.352;2024-01-30T05:57:32;-2.20;99.90
25170;DHT22;13129;48.012;10.352;2024-01-30T05:59:57;-2.20;99.90
25170;DHT22;13129;48.012;10.352;2024-01-30T06:02:23;-2.20;99.90
25170;DHT22;13129;48.012;10.352;2024-01-30T06:04:48;-2.20;99.90
25170;DHT22;13129;48.012;10.352;2024-01-30T06:07:14;-2.20;99.90
25170;DHT22;13129;48.012;10.352;2024-01-30T06:09:40;-2.20;99.90
25170;DHT22;13129;48.012;10.352;2024-01-30T06:12:06;-2.20;99.90
25170;DHT22;13129;48.012;10.352;2024-01-30T06:14:32;-2.20;99.90
25170;DHT22;13129;48.012;10.352;2024-01-30T06:16:58;-2.30;99.90
25170;DHT22;13129;48.012;10.352;2024-01-30T06:19:24;-2.30;99.90
25170;DHT22;13129;48.012;10.352;2024-01-30T06:21:50;-2.30;99.90
25170;DHT22;13129;48.012;10.352;2024-01-30T06:24:15;-2.30;99.90
25170;DHT22;13129;48.012;10.352;2024-01-30T06:26:41;-2.30;99.90
25170;DHT22;13129;48.012;10.352;2024-01-30T06:29:06;-2.30;99.90
25170;DHT22;13129;48.012;10.352;2024-01-30T06:31:33;-2.30;99.90
25170;DHT22;13129;48.012;10.352;2024-01-30T06:33:58;-2.20;99.90
25170;DHT22;13129;48.012;10.352;2024-01-30T06:36:24;-2.20;99.90
25170;DHT22;13129;48.012;10.352;2024-01-30T06:38:49;-2.20;99.90
25170;DHT22;13129;48.012;10.352;2024-01-30T06:41:15;-2.20;99.90
25170;DHT22;13129;48.012;10.352;2024-01-30T06:43:41;-2.20;99.90
25170;DHT22;13129;48.012;10.352;2024-01-30T06:46:06;-2.10;99.90
25170;DHT22;13129;48.012;10.352;2024-01-30T06:48:32;-2.10;99.90
25170;DHT22;13129;48.012;10.352;2024-01-30T06:50:57;-2.10;99.90
25170;DHT22;13129;48.012;10.352;2024-01-30T06:53:23;-2.10;99.90
25170;DHT22;13129;48.012;10.352;2024-01-30T06:55:49;-2.10;99.90
25170;DHT22;13129;48.012;10.352;2024-01-30T06:58:15;-2.00;99.90
25170;DHT22;13129;48.012;10.352;2024-01-30T07:00:40;-2.00;99.90
25170;DHT22;13129;48.012;10.352;2024-01-30T07:03:07;-1.90;99.90
25170;DHT22;13129;48.012;10.352;2024-01-30T07:05:32;-1.90;99.90
25170;DHT22;13129;48.012;10.352;2024-01-30T07:07:58;-1.90;99.90
25170;DHT22;13129;48.012;10.352;2024-01-30T07:10:23;-1.80;99.90
25170;DHT22;13129;48.012;10.352;2024-01-30T07:12:49;-1.70;99.90
25170;DHT22;13129;48.012;10.352;2024-01-30T07:15:15;-1.60;99.90
25170;DHT22;13129;48.012;10.352;2024-01-30T07:17:43;-1.50;99.90
25170;DHT22;13129;48.012;10.352;2024-01-30T07:20:09;-1.40;99.90
25170;DHT22;13129;48.012;10.352;2024-01-30T07:22:34;-1.20;99.90
25170;DHT22;13129;48.012;10.352;2024-01-30T07:25:00;-1.00;99.90
25170;DHT22;13129;48.012;10.352;2024-01-30T07:27:26;-0.90;99.90
25170;DHT22;13129;48.012;10.352;2024-01-30T07:29:51;-0.70;99.90
25170;DHT22;13129;48.012;10.352;2024-01-30T07:32:17;-0.60;99.90
25170;DHT22;13129;48.012;10.352;2024-01-30T07:34:44;-0.50;99.90
25170;DHT22;13129;48.012;10.352;2024-01-30T07:37:09;-0.30;99.90
25170;DHT22;13129;48.012;10.352;2024-01-30T07:39:36;-0.20;99.90
25170;DHT22;13129;48.012;10.352;2024-01-30T07:42:02;0.00;99.90
25170;DHT22;13129;48.012;10.352;2024-01-30T07:44:28;0.20;99.90
25170;DHT22;13129;48.012;10.352;2024-01-30T07:46:53;0.30;99.90
25170;DHT22;13129;48.012;10.352;2024-01-30T07:49:20;0.50;99.90
25170;DHT22;13129;48.012;10.352;2024-01-30T07:51:45;0.60;99.90
25170;DHT22;13129;48.012;10.352;2024-01-30T07:54:14;0.80;99.90
25170;DHT22;13129;48.012;10.352;2024-01-30T07:56:40;1.10;99.90
25170;DHT22;13129;48.012;10.352;2024-01-30T07:59:14;2.20;99.90
25170;DHT22;13129;48.012;10.352;2024-01-30T08:01:39;3.50;99.90
25170;DHT22;13129;48.012;10.352;2024-01-30T08:04:05;4.70;99.90
25170;DHT22;13129;48.012;10.352;2024-01-30T08:06:30;6.00;99.90
25170;DHT22;13129;48.012;10.352;2024-01-30T08:08:56;6.60;99.90
25170;DHT22;13129;48.012;10.352;2024-01-30T08:11:22;6.50;99.90
25170;DHT22;13129;48.012;10.352;2024-01-30T08:13:52;6.10;99.90
25170;DHT22;13129;48.012;10.352;2024-01-30T08:16:18;5.90;99.90
25170;DHT22;13129;48.012;10.352;2024-01-30T08:18:44;6.00;99.90
25170;DHT22;13129;48.012;10.352;2024-01-30T08:21:09;6.10;99.90
25170;DHT22;13129;48.012;10.352;2024-01-30T08:23:35;6.20;99.90
25170;DHT22;13129;48.012;10.352;2024-01-30T08:26:00;6.50;99.90
25170;DHT22;13129;48.012;10.352;2024-01-30T08:28:26;6.90;99.90
25170;DHT22;13129;48.012;10.352;2024-01-30T08:30:52;7.70;99.90
25170;DHT22;13129;48.012;10.352;2024-01-30T08:33:18;8.70;99.90
25170;DHT22;13129;48.012;10.352;2024-01-30T08:35:43;9.50;99.90
25170;DHT22;13129;48.012;10.352;2024-01-30T08:38:09;10.00;99.90
25170;DHT22;13129;48.012;10.352;2024-01-30T08:40:34;9.70;99.90
25170;DHT22;13129;48.012;10.352;2024-01-30T08:43:00;9.40;99.90
25170;DHT22;13129;48.012;10.352;2024-01-30T08:45:26;9.80;99.90
25170;DHT22;13129;48.012;10.352;2024-01-30T08:47:51;10.20;99.90
25170;DHT22;13129;48.012;10.352;2024-01-30T08:50:17;10.80;99.40
25170;DHT22;13129;48.012;10.352;2024-01-30T08:52:43;11.00;98.10
25170;DHT22;13129;48.012;10.352;2024-01-30T08:55:09;11.20;97.30
25170;DHT22;13129;48.012;10.352;2024-01-30T08:57:34;11.60;96.80
25170;DHT22;13129;48.012;10.352;2024-01-30T09:00:00;12.10;95.50
25170;DHT22;13129;48.012;10.352;2024-01-30T09:02:29;12.60;94.90
25170;DHT22;13129;48.012;10.352;2024-01-30T09:04:54;13.40;93.90
25170;DHT22;13129;48.012;10.352;2024-01-30T09:07:20;14.40;92.20
25170;DHT22;13129;48.012;10.352;2024-01-30T09:09:45;15.20;88.10
25170;DHT22;13129;48.012;10.352;2024-01-30T09:12:11;15.10;85.10
25170;DHT22;13129;48.012;10.352;2024-01-30T09:14:37;14.70;84.30
25170;DHT22;13129;48.012;10.352;2024-01-30T09:17:03;14.10;84.80
25170;DHT22;13129;48.012;10.352;2024-01-30T09:19:30;13.50;86.10
25170;DHT22;13129;48.012;10.352;2024-01-30T09:21:55;12.80;87.80
25170;DHT22;13129;48.012;10.352;2024-01-30T09:24:21;12.30;90.10
25170;DHT22;13129;48.012;10.352;2024-01-30T09:26:46;12.10;90.50
25170;DHT22;13129;48.012;10.352;2024-01-30T09:29:12;11.80;91.00
25170;DHT22;13129;48.012;10.352;2024-01-30T09:31:38;12.10;91.90
25170;DHT22;13129;48.012;10.352;2024-01-30T09:34:03;13.00;91.80
25170;DHT22;13129;48.012;10.352;2024-01-30T09:36:29;13.90;90.70
25170;DHT22;13129;48.012;10.352;2024-01-30T09:38:54;14.80;89.90
25170;DHT22;13129;48.012;10.352;2024-01-30T09:41:24;15.20;87.50
25170;DHT22;13129;48.012;10.352;2024-01-30T09:43:50;15.40;87.40
25170;DHT22;13129;48.012;10.352;2024-01-30T09:46:17;15.90;86.80
25170;DHT22;13129;48.012;10.352;2024-01-30T09:48:46;16.70;85.40
25170;DHT22;13129;48.012;10.352;2024-01-30T09:51:14;17.40;83.10
25170;DHT22;13129;48.012;10.352;2024-01-30T09:53:41;18.00;80.10
25170;DHT22;13129;48.012;10.352;2024-01-30T09:56:07;18.20;78.60
25170;DHT22;13129;48.012;10.352;2024-01-30T09:58:33;18.60;77.00
25170;DHT22;13129;48.012;10.352;2024-01-30T10:00:58;18.80;75.20
25170;DHT22;13129;48.012;10.352;2024-01-30T10:03:24;19.00;73.20
25170;DHT22;13129;48.012;10.352;2024-01-30T10:05:51;18.80;72.90
25170;DHT22;13129;48.012;10.352;2024-01-30T10:08:20;18.40;71.80
25170;DHT22;13129;48.012;10.352;2024-01-30T10:10:47;17.80;72.60
25170;DHT22;13129;48.012;10.352;2024-01-30T10:13:13;17.30;73.80
25170;DHT22;13129;48.012;10.352;2024-01-30T10:15:38;17.10;74.40
25170;DHT22;13129;48.012;10.352;2024-01-30T10:18:05;17.00;74.90
25170;DHT22;13129;48.012;10.352;2024-01-30T10:20:34;16.80;75.10
25170;DHT22;13129;48.012;10.352;2024-01-30T10:22:59;16.60;75.90
25170;DHT22;13129;48.012;10.352;2024-01-30T10:25:25;16.10;76.20
25170;DHT22;13129;48.012;10.352;2024-01-30T10:27:55;15.70;77.00
25170;DHT22;13129;48.012;10.352;2024-01-30T10:30:22;15.40;77.90
25170;DHT22;13129;48.012;10.352;2024-01-30T10:32:48;15.10;79.10
25170;DHT22;13129;48.012;10.352;2024-01-30T10:35:14;15.00;80.00
25170;DHT22;13129;48.012;10.352;2024-01-30T10:37:39;15.10;79.70
25170;DHT22;13129;48.012;10.352;2024-01-30T10:40:05;15.10;79.50
25170;DHT22;13129;48.012;10.352;2024-01-30T10:42:32;15.10;79.20
25170;DHT22;13129;48.012;10.352;2024-01-30T10:45:08;14.90;78.50
25170;DHT22;13129;48.012;10.352;2024-01-30T10:47:36;14.70;79.70
25170;DHT22;13129;48.012;10.352;2024-01-30T10:50:05;14.70;79.30
25170;DHT22;13129;48.012;10.352;2024-01-30T10:52:32;14.80;78.20
25170;DHT22;13129;48.012;10.352;2024-01-30T10:54:58;14.50;78.00
25170;DHT22;13129;48.012;10.352;2024-01-30T10:57:26;14.30;78.00
25170;DHT22;13129;48.012;10.352;2024-01-30T11:00:04;14.70;78.80
25170;DHT22;13129;48.012;10.352;2024-01-30T11:02:40;15.40;77.00
25170;DHT22;13129;48.012;10.352;2024-01-30T11:05:09;15.80;74.30
25170;DHT22;13129;48.012;10.352;2024-01-30T11:07:39;16.20;72.90
25170;DHT22;13129;48.012;10.352;2024-01-30T11:10:06;16.70;71.10
25170;DHT22;13129;48.012;10.352;2024-01-30T11:12:38;17.00;69.80
25170;DHT22;13129;48.012;10.352;2024-01-30T11:15:11;18.10;68.40
25170;DHT22;13129;48.012;10.352;2024-01-30T11:21:22;19.00;64.70
25170;DHT22;13129;48.012;10.352;2024-01-30T11:24:01;19.40;62.70
25170;DHT22;13129;48.012;10.352;2024-01-30T11:26:31;18.90;62.30
25170;DHT22;13129;48.012;10.352;2024-01-30T11:28:56;18.30;63.00
25170;DHT22;13129;48.012;10.352;2024-01-30T11:31:22;17.80;64.20
25170;DHT22;13129;48.012;10.352;2024-01-30T11:33:56;18.20;64.50
25170;DHT22;13129;48.012;10.352;2024-01-30T11:36:26;19.10;62.60
25170;DHT22;13129;48.012;10.352;2024-01-30T11:42:17;19.90;59.70
25170;DHT22;13129;48.012;10.352;2024-01-30T11:45:09;19.70;59.40
25170;DHT22;13129;48.012;10.352;2024-01-30T11:47:41;19.90;59.50
25170;DHT22;13129;48.012;10.352;2024-01-30T11:50:46;19.90;59.50
25170;DHT22;13129;48.012;10.352;2024-01-30T11:54:17;19.60;59.30
25170;DHT22;13129;48.012;10.352;2024-01-30T11:56:20;19.10;60.30
25170;DHT22;13129;48.012;10.352;2024-01-30T11:58:46;18.30;62.00
25170;DHT22;13129;48.012;10.352;2024-01-30T12:01:12;17.90;62.50
25170;DHT22;13129;48.012;10.352;2024-01-30T12:03:37;17.60;63.70
25170;DHT22;13129;48.012;10.352;2024-01-30T12:06:03;17.20;64.60
25170;DHT22;13129;48.012;10.352;2024-01-30T12:08:29;16.60;65.80
25170;DHT22;13129;48.012;10.352;2024-01-30T12:10:58;16.00;67.30
25170;DHT22;13129;48.012;10.352;2024-01-30T12:13:25;15.30;69.10
25170;DHT22;13129;48.012;10.352;2024-01-30T12:15:51;14.80;70.10
25170;DHT22;13129;48.012;10.352;2024-01-30T12:18:19;14.50;71.50
25170;DHT22;13129;48.012;10.352;2024-01-30T12:20:45;14.30;72.60
25170;DHT22;13129;48.012;10.352;2024-01-30T12:23:12;14.10;72.80
25170;DHT22;13129;48.012;10.352;2024-01-30T12:25:38;13.80;73.20
25170;DHT22;13129;48.012;10.352;2024-01-30T12:28:04;13.80;74.40
25170;DHT22;13129;48.012;10.352;2024-01-30T12:30:30;13.80;74.60
25170;DHT22;13129;48.012;10.352;2024-01-30T12:32:55;13.70;74.50
25170;DHT22;13129;48.012;10.352;2024-01-30T12:35:21;13.50;74.40
25170;DHT22;13129;48.012;10.352;2024-01-30T12:37:48;13.50;74.60
25170;DHT22;13129;48.012;10.352;2024-01-30T12:40:14;13.40;74.80
25170;DHT22;13129;48.012;10.352;2024-01-30T12:42:41;13.30;75.10
25170;DHT22;13129;48.012;10.352;2024-01-30T12:45:11;13.40;75.30
25170;DHT22;13129;48.012;10.352;2024-01-30T12:47:38;13.20;74.40
25170;DHT22;13129;48.012;10.352;2024-01-30T12:50:04;13.20;74.90
25170;DHT22;13129;48.012;10.352;2024-01-30T12:52:30;13.00;74.60
25170;DHT22;13129;48.012;10.352;2024-01-30T12:54:56;13.00;75.00
25170;DHT22;13129;48.012;10.352;2024-01-30T12:57:21;12.90;75.20
25170;DHT22;13129;48.012;10.352;2024-01-30T12:59:47;12.90;75.00
25170;DHT22;13129;48.012;10.352;2024-01-30T13:02:13;12.90;75.60
25170;DHT22;13129;48.012;10.352;2024-01-30T13:04:40;12.90;75.70
25170;DHT22;13129;48.012;10.352;2024-01-30T13:07:06;12.80;77.00
25170;DHT22;13129;48.012;10.352;2024-01-30T13:09:31;12.80;77.30
25170;DHT22;13129;48.012;10.352;2024-01-30T13:11:58;12.70;76.90
25170;DHT22;13129;48.012;10.352;2024-01-30T13:14:24;12.70;77.00
25170;DHT22;13129;48.012;10.352;2024-01-30T13:16:50;12.50;77.30
25170;DHT22;13129;48.012;10.352;2024-01-30T13:19:16;12.50;77.70
25170;DHT22;13129;48.012;10.352;2024-01-30T13:21:42;12.40;78.00
25170;DHT22;13129;48.012;10.352;2024-01-30T13:24:07;12.30;78.50
25170;DHT22;13129;48.012;10.352;2024-01-30T13:26:33;12.20;78.80
25170;DHT22;13129;48.012;10.352;2024-01-30T13:28:59;12.10;79.30
25170;DHT22;13129;48.012;10.352;2024-01-30T13:31:24;12.00;79.10
25170;DHT22;13129;48.012;10.352;2024-01-30T13:33:50;11.80;79.20
25170;DHT22;13129;48.012;10.352;2024-01-30T13:36:16;11.70;79.70
25170;DHT22;13129;48.012;10.352;2024-01-30T13:38:42;11.60;80.20
25170;DHT22;13129;48.012;10.352;2024-01-30T13:41:07;11.50;80.80
25170;DHT22;13129;48.012;10.352;2024-01-30T13:43:33;11.30;81.10
25170;DHT22;13129;48.012;10.352;2024-01-30T13:45:59;11.30;81.80
25170;DHT22;13129;48.012;10.352;2024-01-30T13:48:24;11.20;82.10
25170;DHT22;13129;48.012;10.352;2024-01-30T13:50:50;11.20;82.40
25170;DHT22;13129;48.012;10.352;2024-01-30T13:53:16;11.10;82.60
25170;DHT22;13129;48.012;10.352;2024-01-30T13:55:41;11.10;83.00
25170;DHT22;13129;48.012;10.352;2024-01-30T13:58:07;11.10;83.00
25170;DHT22;13129;48.012;10.352;2024-01-30T14:00:33;11.20;83.30
25170;DHT22;13129;48.012;10.352;2024-01-30T14:02:59;11.20;83.20
25170;DHT22;13129;48.012;10.352;2024-01-30T14:05:26;11.20;83.40
25170;DHT22;13129;48.012;10.352;2024-01-30T14:07:53;11.20;83.20
25170;DHT22;13129;48.012;10.352;2024-01-30T14:10:19;11.10;83.10
25170;DHT22;13129;48.012;10.352;2024-01-30T14:12:45;11.20;83.20
25170;DHT22;13129;48.012;10.352;2024-01-30T14:15:11;11.20;83.20
25170;DHT22;13129;48.012;10.352;2024-01-30T14:17:38;11.10;83.30
25170;DHT22;13129;48.012;10.352;2024-01-30T14:20:04;11.10;83.50
25170;DHT22;13129;48.012;10.352;2024-01-30T14:22:30;11.00;83.70
25170;DHT22;13129;48.012;10.352;2024-01-30T14:24:56;11.00;84.10
25170;DHT22;13129;48.012;10.352;2024-01-30T14:27:22;10.90;84.40
25170;DHT22;13129;48.012;10.352;2024-01-30T14:29:48;10.80;84.60
25170;DHT22;13129;48.012;10.352;2024-01-30T14:32:13;10.70;84.80
25170;DHT22;13129;48.012;10.352;2024-01-30T14:34:39;10.60;85.20
25170;DHT22;13129;48.012;10.352;2024-01-30T14:37:05;10.50;85.80
25170;DHT22;13129;48.012;10.352;2024-01-30T14:39:30;10.40;86.60
25170;DHT22;13129;48.012;10.352;2024-01-30T14:41:57;10.40;86.50
25170;DHT22;13129;48.012;10.352;2024-01-30T14:44:23;10.40;86.90
25170;DHT22;13129;48.012;10.352;2024-01-30T14:46:49;10.20;86.90
25170;DHT22;13129;48.012;10.352;2024-01-30T14:49:15;10.20;86.80
25170;DHT22;13129;48.012;10.352;2024-01-30T14:51:42;10.20;86.70
25170;DHT22;13129;48.012;10.352;2024-01-30T14:54:08;10.20;86.80
25170;DHT22;13129;48.012;10.352;2024-01-30T14:56:33;10.10;87.00
25170;DHT22;13129;48.012;10.352;2024-01-30T14:59:00;10.00;87.00
25170;DHT22;13129;48.012;10.352;2024-01-30T15:01:25;10.00;87.00
25170;DHT22;13129;48.012;10.352;2024-01-30T15:03:51;10.00;87.10
25170;DHT22;13129;48.012;10.352;2024-01-30T15:06:17;10.00;87.30
25170;DHT22;13129;48.012;10.352;2024-01-30T15:08:43;9.90;87.30
25170;DHT22;13129;48.012;10.352;2024-01-30T15:11:10;9.80;87.30
25170;DHT22;13129;48.012;10.352;2024-01-30T15:13:36;9.80;87.60
25170;DHT22;13129;48.012;10.352;2024-01-30T15:16:02;9.70;87.60
25170;DHT22;13129;48.012;10.352;2024-01-30T15:18:30;9.60;87.70
25170;DHT22;13129;48.012;10.352;2024-01-30T15:20:56;9.50;87.90
25170;DHT22;13129;48.012;10.352;2024-01-30T15:23:21;9.40;88.10
25170;DHT22;13129;48.012;10.352;2024-01-30T15:25:47;9.30;88.20
25170;DHT22;13129;48.012;10.352;2024-01-30T15:28:12;9.20;88.50
25170;DHT22;13129;48.012;10.352;2024-01-30T15:30:40;9.00;88.80
25170;DHT22;13129;48.012;10.352;2024-01-30T15:33:09;8.90;89.00
25170;DHT22;13129;48.012;10.352;2024-01-30T15:35:35;8.70;89.20
25170;DHT22;13129;48.012;10.352;2024-01-30T15:38:00;8.60;89.40
25170;DHT22;13129;48.012;10.352;2024-01-30T15:40:26;8.40;89.80
25170;DHT22;13129;48.012;10.352;2024-01-30T15:42:52;8.30;90.00
25170;DHT22;13129;48.012;10.352;2024-01-30T15:45:17;8.20;90.20
25170;DHT22;13129;48.012;10.352;2024-01-30T15:47:43;8.10;90.40
25170;DHT22;13129;48.012;10.352;2024-01-30T15:50:11;8.00;90.60
25170;DHT22;13129;48.012;10.352;2024-01-30T15:52:36;7.90;90.70
25170;DHT22;13129;48.012;10.352;2024-01-30T15:55:02;7.80;90.80
25170;DHT22;13129;48.012;10.352;2024-01-30T15:57:28;7.70;91.00
25170;DHT22;13129;48.012;10.352;2024-01-30T15:59:53;7.60;91.10
25170;DHT22;13129;48.012;10.352;2024-01-30T16:02:19;7.50;91.60
25170;DHT22;13129;48.012;10.352;2024-01-30T16:04:46;7.40;91.50
25170;DHT22;13129;48.012;10.352;2024-01-30T16:07:12;7.30;91.70
25170;DHT22;13129;48.012;10.352;2024-01-30T16:09:37;7.20;91.90
25170;DHT22;13129;48.012;10.352;2024-01-30T16:12:03;7.20;92.10
25170;DHT22;13129;48.012;10.352;2024-01-30T16:14:29;7.10;92.30
25170;DHT22;13129;48.012;10.352;2024-01-30T16:16:55;7.10;92.30
25170;DHT22;13129;48.012;10.352;2024-01-30T16:19:20;7.10;92.40
25170;DHT22;13129;48.012;10.352;2024-01-30T16:21:46;7.10;92.50
25170;DHT22;13129;48.012;10.352;2024-01-30T16:24:12;7.00;92.60
25170;DHT22;13129;48.012;10.352;2024-01-30T16:26:37;7.00;92.80
25170;DHT22;13129;48.012;10.352;2024-01-30T16:29:04;7.00;92.90
25170;DHT22;13129;48.012;10.352;2024-01-30T16:31:30;6.80;93.00
25170;DHT22;13129;48.012;10.352;2024-01-30T16:33:55;6.70;93.20
25170;DHT22;13129;48.012;10.352;2024-01-30T16:36:22;6.60;93.40
25170;DHT22;13129;48.012;10.352;2024-01-30T16:38:48;6.60;93.70
25170;DHT22;13129;48.012;10.352;2024-01-30T16:41:13;6.50;93.90
25170;DHT22;13129;48.012;10.352;2024-01-30T16:43:39;6.30;94.10
25170;DHT22;13129;48.012;10.352;2024-01-30T16:46:05;6.30;94.40
25170;DHT22;13129;48.012;10.352;2024-01-30T16:48:30;6.20;94.60
25170;DHT22;13129;48.012;10.352;2024-01-30T16:50:56;6.20;94.80
25170;DHT22;13129;48.012;10.352;2024-01-30T16:53:22;6.10;95.10
25170;DHT22;13129;48.012;10.352;2024-01-30T16:55:47;6.10;95.30
25170;DHT22;13129;48.012;10.352;2024-01-30T16:58:13;6.00;95.50
25170;DHT22;13129;48.012;10.352;2024-01-30T17:00:38;6.00;95.70
25170;DHT22;13129;48.012;10.352;2024-01-30T17:03:04;6.00;95.90
25170;DHT22;13129;48.012;10.352;2024-01-30T17:05:30;6.00;96.20
25170;DHT22;13129;48.012;10.352;2024-01-30T17:07:56;6.00;96.20
25170;DHT22;13129;48.012;10.352;2024-01-30T17:10:24;6.00;96.30
25170;DHT22;13129;48.012;10.352;2024-01-30T17:12:49;6.00;96.30
25170;DHT22;13129;48.012;10.352;2024-01-30T17:15:15;6.00;96.30
25170;DHT22;13129;48.012;10.352;2024-01-30T17:17:41;6.00;96.40
25170;DHT22;13129;48.012;10.352;2024-01-30T17:20:07;6.00;96.50
25170;DHT22;13129;48.012;10.352;2024-01-30T17:22:33;6.00;96.60
25170;DHT22;13129;48.012;10.352;2024-01-30T17:24:58;6.00;96.50
25170;DHT22;13129;48.012;10.352;2024-01-30T17:27:24;6.10;96.30
25170;DHT22;13129;48.012;10.352;2024-01-30T17:29:50;6.10;96.20
25170;DHT22;13129;48.012;10.352;2024-01-30T17:32:15;6.10;96.20
25170;DHT22;13129;48.012;10.352;2024-01-30T17:34:41;6.20;96.20
25170;DHT22;13129;48.012;10.352;2024-01-30T17:37:07;6.10;96.20
25170;DHT22;13129;48.012;10.352;2024-01-30T17:39:33;6.00;96.60
25170;DHT22;13129;48.012;10.352;2024-01-30T17:41:59;6.10;96.30
25170;DHT22;13129;48.012;10.352;2024-01-30T17:44:24;6.10;96.40
25170;DHT22;13129;48.012;10.352;2024-01-30T17:46:50;6.00;96.50
25170;DHT22;13129;48.012;10.352;2024-01-30T17:49:16;5.90;96.60
25170;DHT22;13129;48.012;10.352;2024-01-30T17:51:42;5.90;96.60
25170;DHT22;13129;48.012;10.352;2024-01-30T17:54:08;5.80;96.70
25170;DHT22;13129;48.012;10.352;2024-01-30T17:56:34;5.70;97.00
25170;DHT22;13129;48.012;10.352;2024-01-30T17:58:59;5.60;97.30
25170;DHT22;13129;48.012;10.352;2024-01-30T18:01:25;5.50;97.80
25170;DHT22;13129;48.012;10.352;2024-01-30T18:03:51;5.40;98.00
25170;DHT22;13129;48.012;10.352;2024-01-30T18:06:21;5.30;98.40
25170;DHT22;13129;48.012;10.352;2024-01-30T18:08:46;5.30;98.80
25170;DHT22;13129;48.012;10.352;2024-01-30T18:11:12;5.30;99.10
25170;DHT22;13129;48.012;10.352;2024-01-30T18:13:38;5.20;99.40
25170;DHT22;13129;48.012;10.352;2024-01-30T18:16:03;5.40;99.80
25170;DHT22;13129;48.012;10.352;2024-01-30T18:18:29;5.20;99.90
25170;DHT22;13129;48.012;10.352;2024-01-30T18:20:55;5.20;99.90
25170;DHT22;13129;48.012;10.352;2024-01-30T18:23:20;5.20;99.90
25170;DHT22;13129;48.012;10.352;2024-01-30T18:25:46;5.20;99.90
25170;DHT22;13129;48.012;10.352;2024-01-30T18:28:12;5.30;99.90
25170;DHT22;13129;48.012;10.352;2024-01-30T18:30:38;5.30;99.90
25170;DHT22;13129;48.012;10.352;2024-01-30T18:33:04;5.30;99.90
25170;DHT22;13129;48.012;10.352;2024-01-30T18:35:30;5.30;99.90
25170;DHT22;13129;48.012;10.352;2024-01-30T18:37:56;5.40;99.90
25170;DHT22;13129;48.012;10.352;2024-01-30T18:40:22;5.40;99.90
25170;DHT22;13129;48.012;10.352;2024-01-30T18:42:48;5.40;99.90
25170;DHT22;13129;48.012;10.352;2024-01-30T18:45:14;5.50;99.90
25170;DHT22;13129;48.012;10.352;2024-01-30T18:47:40;5.40;99.90
25170;DHT22;13129;48.012;10.352;2024-01-30T18:50:06;5.50;99.90
25170;DHT22;13129;48.012;10.352;2024-01-30T18:52:31;5.50;99.90
25170;DHT22;13129;48.012;10.352;2024-01-30T18:54:57;5.60;99.90
25170;DHT22;13129;48.012;10.352;2024-01-30T18:57:23;5.60;99.90
25170;DHT22;13129;48.012;10.352;2024-01-30T18:59:48;5.70;99.90
25170;DHT22;13129;48.012;10.352;2024-01-30T19:02:14;5.70;99.90
25170;DHT22;13129;48.012;10.352;2024-01-30T19:04:41;5.80;99.80
25170;DHT22;13129;48.012;10.352;2024-01-30T19:07:07;5.80;99.90
25170;DHT22;13129;48.012;10.352;2024-01-30T19:09:33;5.80;99.40
25170;DHT22;13129;48.012;10.352;2024-01-30T19:11:58;5.80;99.20
25170;DHT22;13129;48.012;10.352;2024-01-30T19:14:24;5.80;99.20
25170;DHT22;13129;48.012;10.352;2024-01-30T19:16:49;5.80;99.30
25170;DHT22;13129;48.012;10.352;2024-01-30T19:19:15;5.80;99.30
25170;DHT22;13129;48.012;10.352;2024-01-30T19:21:41;5.80;99.20
25170;DHT22;13129;48.012;10.352;2024-01-30T19:24:07;5.80;99.30
25170;DHT22;13129;48.012;10.352;2024-01-30T19:26:32;5.70;99.40
25170;DHT22;13129;48.012;10.352;2024-01-30T19:28:58;5.70;99.50
25170;DHT22;13129;48.012;10.352;2024-01-30T19:31:24;5.70;99.50
25170;DHT22;13129;48.012;10.352;2024-01-30T19:33:49;5.70;99.70
25170;DHT22;13129;48.012;10.352;2024-01-30T19:36:16;5.60;99.80
25170;DHT22;13129;48.012;10.352;2024-01-30T19:38:42;5.60;99.90
25170;DHT22;13129;48.012;10.352;2024-01-30T19:41:11;5.70;99.90
25170;DHT22;13129;48.012;10.352;2024-01-30T19:43:37;5.70;99.90
25170;DHT22;13129;48.012;10.352;2024-01-30T19:46:03;5.60;99.90
25170;DHT22;13129;48.012;10.352;2024-01-30T19:48:29;5.60;99.90
25170;DHT22;13129;48.012;10.352;2024-01-30T19:50:54;5.50;99.90
25170;DHT22;13129;48.012;10.352;2024-01-30T19:53:20;5.40;99.90
25170;DHT22;13129;48.012;10.352;2024-01-30T19:55:46;5.30;99.90
25170;DHT22;13129;48.012;10.352;2024-01-30T19:58:12;5.30;99.90
25170;DHT22;13129;48.012;10.352;2024-01-30T20:00:39;5.20;99.90
25170;DHT22;13129;48.012;10.352;2024-01-30T20:03:05;5.20;99.90
25170;DHT22;13129;48.012;10.352;2024-01-30T20:05:31;5.20;99.90
25170;DHT22;13129;48.012;10.352;2024-01-30T20:07:57;5.10;99.90
25170;DHT22;13129;48.012;10.352;2024-01-30T20:10:22;5.10;99.90
25170;DHT22;13129;48.012;10.352;2024-01-30T20:12:48;5.20;99.90